Terminal Aerodrome Forecast
Issued by NWS

Home | Current Version | Previous Version | Text Only | Print | Product List | Glossary On
Versions: 1 2 3 4 5 6 7 8 9 10 11 12 13 14 15 16 17
000
FTUS41 KBTV 181735
TAFMPV
TAF
KMPV 181735Z 1818/1918 VRB04KT 6SM BR OVC020
      TEMPO 1818/1822 3SM BR OVC010
     FM190200 VRB03KT P6SM VCSH OVC020
     FM190700 VRB03KT 1SM BR OVC006
     FM191500 VRB03KT 3SM BR OVC012=

USA.gov is the U.S. government's official web portal to all federal, state and local government web resources and services.